createdAt,value
2023-02-26T00:00:16.499Z,18.20
2023-02-26T00:02:47.354Z,18.57
2023-02-26T00:05:17.117Z,20.43
2023-02-26T00:07:45.813Z,13.50
2023-02-26T00:10:16.430Z,11.20
2023-02-26T00:12:47.628Z,12.73
2023-02-26T00:15:18.496Z,15.77
2023-02-26T00:17:56.894Z,13.57
2023-02-26T00:20:27.390Z,15.00
2023-02-26T00:22:56.622Z,15.97
2023-02-26T00:25:25.314Z,12.73
2023-02-26T00:27:55.976Z,17.90
2023-02-26T00:30:25.342Z,18.33
2023-02-26T00:32:54.545Z,15.93
2023-02-26T00:35:24.172Z,17.73
2023-02-26T00:38:02.251Z,17.50
2023-02-26T00:40:44.514Z,15.90
2023-02-26T00:43:19.737Z,13.53
2023-02-26T00:46:04.058Z,16.20
2023-02-26T00:48:46.642Z,16.73
2023-02-26T00:51:22.394Z,16.97
2023-02-26T00:54:00.454Z,18.23
2023-02-26T00:56:29.096Z,9.65
2023-02-26T00:58:59.215Z,20.47
2023-02-26T01:01:27.817Z,27.00
2023-02-26T01:03:57.878Z,19.27
2023-02-26T01:06:29.303Z,20.73
2023-02-26T01:09:07.093Z,20.10
2023-02-26T01:11:37.166Z,19.03
2023-02-26T01:14:07.690Z,20.50
2023-02-26T01:16:43.059Z,17.50
2023-02-26T01:19:19.604Z,12.50
2023-02-26T01:21:53.003Z,9.90
2023-02-26T01:24:24.710Z,12.33
2023-02-26T01:26:53.552Z,13.57
2023-02-26T01:29:24.094Z,8.47
2023-02-26T01:31:59.709Z,8.53
2023-02-26T01:34:32.776Z,10.23
2023-02-26T01:37:07.950Z,9.47
2023-02-26T01:39:43.026Z,10.63
2023-02-26T01:42:16.874Z,8.77
2023-02-26T01:44:56.416Z,10.20
2023-02-26T01:47:31.842Z,9.23
2023-02-26T01:50:07.642Z,9.20
2023-02-26T01:53:17.838Z,8.80
2023-02-26T01:55:49.581Z,6.63
2023-02-26T01:58:19.016Z,10.60
2023-02-26T02:00:49.312Z,8.13
2023-02-26T02:03:18.134Z,9.10
2023-02-26T02:05:51.414Z,11.37
2023-02-26T02:08:21.736Z,10.27
2023-02-26T02:10:51.972Z,10.97
2023-02-26T02:13:37.924Z,10.63
2023-02-26T02:16:19.672Z,9.20
2023-02-26T02:18:59.521Z,11.03
2023-02-26T02:21:55.236Z,9.60
2023-02-26T02:24:33.913Z,8.73
2023-02-26T02:27:08.082Z,8.57
2023-02-26T02:30:12.720Z,11.70
2023-02-26T02:32:47.070Z,9.63
2023-02-26T02:35:21.492Z,11.13
2023-02-26T02:37:56.509Z,11.43
2023-02-26T02:40:29.103Z,11.00
2023-02-26T02:43:02.362Z,11.53
2023-02-26T02:45:39.804Z,13.57
2023-02-26T02:48:15.300Z,13.73
2023-02-26T02:50:48.779Z,6.88
2023-02-26T02:53:22.029Z,53.93
2023-02-26T02:55:54.594Z,23.83
2023-02-26T02:58:26.776Z,13.87
2023-02-26T03:00:59.653Z,12.60
2023-02-26T03:03:34.482Z,10.27
2023-02-26T03:06:03.348Z,12.10
2023-02-26T03:08:37.534Z,12.83
2023-02-26T03:11:06.430Z,13.63
2023-02-26T03:13:35.610Z,12.93
2023-02-26T03:16:21.548Z,11.93
2023-02-26T03:18:59.130Z,11.63
2023-02-26T03:21:33.433Z,10.50
2023-02-26T03:24:10.067Z,12.57
2023-02-26T03:26:43.912Z,11.83
2023-02-26T03:29:18.569Z,12.97
2023-02-26T03:31:55.060Z,12.63
2023-02-26T03:34:31.356Z,12.10
2023-02-26T03:37:05.898Z,11.53
2023-02-26T03:39:39.491Z,13.20
2023-02-26T03:42:13.508Z,13.57
2023-02-26T03:44:48.394Z,13.90
2023-02-26T03:47:18.306Z,11.43
2023-02-26T03:49:54.959Z,11.73
2023-02-26T03:52:26.808Z,11.17
2023-02-26T03:55:01.294Z,9.23
2023-02-26T03:57:30.019Z,16.20
2023-02-26T03:59:58.929Z,18.03
2023-02-26T04:02:32.942Z,17.97
2023-02-26T04:05:10.382Z,17.33
2023-02-26T04:07:40.155Z,15.90
2023-02-26T04:10:11.170Z,14.60
2023-02-26T04:12:39.767Z,11.67
2023-02-26T04:15:09.484Z,9.50
2023-02-26T04:17:38.054Z,11.77
2023-02-26T04:20:10.925Z,13.23
2023-02-26T04:22:39.738Z,11.57
2023-02-26T04:25:08.919Z,14.30
2023-02-26T04:27:37.566Z,8.67
2023-02-26T04:30:07.152Z,11.57
2023-02-26T04:32:35.861Z,10.47
2023-02-26T04:35:04.922Z,13.07
2023-02-26T04:37:35.070Z,12.90
2023-02-26T04:40:04.831Z,11.80
2023-02-26T04:42:33.466Z,12.53
2023-02-26T04:45:02.009Z,14.57
2023-02-26T04:47:32.060Z,10.87
2023-02-26T04:50:00.736Z,12.83
2023-02-26T04:52:29.247Z,13.07
2023-02-26T04:54:59.177Z,10.67
2023-02-26T04:57:27.858Z,9.87
2023-02-26T04:59:56.382Z,9.77
2023-02-26T05:02:24.981Z,10.87
2023-02-26T05:04:53.593Z,18.13
2023-02-26T05:07:22.143Z,19.67
2023-02-26T05:09:50.871Z,21.33
2023-02-26T05:12:20.898Z,19.90
2023-02-26T05:14:49.569Z,20.17
2023-02-26T05:17:18.208Z,13.80
2023-02-26T05:19:46.760Z,15.63
2023-02-26T05:22:15.384Z,13.87
2023-02-26T05:24:43.971Z,16.53
2023-02-26T05:27:12.718Z,18.80
2023-02-26T05:29:45.107Z,17.20
2023-02-26T05:32:13.698Z,17.63
2023-02-26T05:34:42.252Z,17.87
2023-02-26T05:37:10.796Z,23.03
2023-02-26T05:39:41.285Z,24.50
2023-02-26T05:42:10.410Z,19.23
2023-02-26T05:44:39.056Z,22.60
2023-02-26T05:47:09.070Z,17.47
2023-02-26T05:49:37.636Z,18.50
2023-02-26T05:52:06.312Z,5.65
2023-02-26T05:54:34.887Z,101.77
2023-02-26T05:57:03.440Z,19.23
2023-02-26T05:59:32.085Z,19.20
2023-02-26T06:02:00.767Z,16.37
2023-02-26T06:04:30.896Z,16.43
2023-02-26T06:06:59.482Z,12.73
2023-02-26T06:09:28.075Z,13.40
2023-02-26T06:11:56.670Z,13.13
2023-02-26T06:14:25.482Z,13.40
2023-02-26T06:16:54.072Z,10.73
2023-02-26T06:19:22.961Z,7.67
2023-02-26T06:21:52.987Z,9.00
2023-02-26T06:24:21.801Z,8.97
2023-02-26T06:26:50.425Z,40.27
2023-02-26T06:29:20.769Z,23.43
2023-02-26T06:31:49.707Z,15.90
2023-02-26T06:34:18.478Z,10.17
2023-02-26T06:36:47.307Z,12.60
2023-02-26T06:39:17.281Z,10.47
2023-02-26T06:41:45.775Z,13.07
2023-02-26T06:44:14.408Z,11.23
2023-02-26T06:46:42.997Z,14.23
2023-02-26T06:49:11.603Z,13.20
2023-02-26T06:51:40.468Z,8.40
2023-02-26T06:54:09.316Z,6.27
2023-02-26T06:56:39.468Z,7.00
2023-02-26T06:59:08.061Z,9.33
2023-02-26T07:01:36.626Z,4.10
2023-02-26T07:04:05.645Z,5.28
2023-02-26T07:06:34.194Z,26.20
2023-02-26T07:09:03.036Z,11.33
2023-02-26T07:11:31.677Z,16.10
2023-02-26T07:14:02.217Z,7.77
2023-02-26T07:16:30.942Z,17.67
2023-02-26T07:18:59.572Z,102.80
2023-02-26T07:21:28.216Z,32.87
2023-02-26T07:23:56.846Z,28.50
2023-02-26T07:26:25.934Z,28.53
2023-02-26T07:28:54.652Z,20.63
2023-02-26T07:31:24.925Z,12.87
2023-02-26T07:33:53.670Z,13.90
2023-02-26T07:36:22.219Z,11.63
2023-02-26T07:38:50.805Z,10.37
2023-02-26T07:41:19.349Z,10.43
2023-02-26T07:43:48.142Z,11.03
2023-02-26T07:46:16.867Z,9.30
2023-02-26T07:48:47.400Z,11.67
2023-02-26T07:51:15.979Z,17.70
2023-02-26T07:53:44.580Z,14.10
2023-02-26T07:56:13.251Z,18.70
2023-02-26T07:58:41.831Z,18.83
2023-02-26T08:01:10.676Z,26.07
2023-02-26T08:03:39.384Z,27.00
2023-02-26T08:06:10.612Z,18.57
2023-02-26T08:08:39.181Z,16.27
2023-02-26T08:11:07.794Z,21.67
2023-02-26T08:13:36.396Z,22.83
2023-02-26T08:16:05.357Z,32.90
2023-02-26T08:18:34.140Z,23.90
2023-02-26T08:21:02.896Z,21.13
2023-02-26T08:23:36.005Z,24.77
2023-02-26T08:26:05.612Z,27.50
2023-02-26T08:28:34.410Z,29.47
2023-02-26T08:31:04.113Z,31.17
2023-02-26T08:33:33.658Z,18.30
2023-02-26T08:36:02.324Z,19.87
2023-02-26T08:38:33.146Z,15.03
2023-02-26T08:41:02.164Z,14.20
2023-02-26T08:43:31.143Z,16.97
2023-02-26T08:46:00.773Z,14.13
2023-02-26T08:48:29.339Z,12.57
2023-02-26T08:50:58.218Z,14.87
2023-02-26T08:53:27.348Z,16.00
2023-02-26T08:55:57.299Z,18.37
2023-02-26T08:58:25.858Z,14.97
2023-02-26T09:00:55.032Z,21.20
2023-02-26T09:03:23.633Z,14.37
2023-02-26T09:05:53.532Z,16.07
2023-02-26T09:08:22.667Z,18.93
2023-02-26T09:10:51.587Z,19.67
2023-02-26T09:13:21.574Z,22.30
2023-02-26T09:15:51.544Z,25.70
2023-02-26T09:18:20.332Z,23.20
2023-02-26T09:20:49.004Z,17.07
2023-02-26T09:23:17.764Z,21.70
2023-02-26T09:25:46.599Z,23.43
2023-02-26T09:28:15.434Z,27.93
2023-02-26T09:30:45.436Z,19.43
2023-02-26T09:33:14.091Z,29.03
2023-02-26T09:35:42.686Z,21.03
2023-02-26T09:38:11.589Z,19.37
2023-02-26T09:40:47.985Z,24.40
2023-02-26T09:43:52.009Z,20.33
2023-02-26T09:46:31.912Z,12.87
2023-02-26T09:49:08.703Z,12.40
2023-02-26T09:51:38.112Z,12.33
2023-02-26T09:54:16.382Z,15.43
2023-02-26T09:56:46.176Z,15.13
2023-02-26T09:59:14.998Z,15.50
2023-02-26T10:01:50.332Z,25.20
2023-02-26T10:04:28.879Z,21.40
2023-02-26T10:07:15.459Z,17.20
2023-02-26T10:09:56.455Z,13.37
2023-02-26T10:12:28.083Z,21.97
2023-02-26T10:15:01.613Z,18.90
2023-02-26T10:17:35.668Z,23.77
2023-02-26T10:20:11.605Z,15.45
2023-02-26T10:22:48.314Z,87.63
2023-02-26T10:25:21.730Z,34.10
2023-02-26T10:28:00.513Z,25.70
2023-02-26T10:30:37.621Z,22.43
2023-02-26T10:33:19.188Z,23.60
2023-02-26T10:35:54.570Z,23.17
2023-02-26T10:38:27.419Z,25.73
2023-02-26T10:41:02.401Z,25.20
2023-02-26T10:43:35.497Z,21.00
2023-02-26T10:46:19.602Z,19.13
2023-02-26T10:49:01.660Z,19.23
2023-02-26T10:51:36.035Z,16.87
2023-02-26T10:54:14.728Z,21.67
2023-02-26T10:56:43.301Z,17.37
2023-02-26T10:59:11.969Z,21.13
2023-02-26T11:01:40.703Z,29.70
2023-02-26T11:04:14.659Z,32.07
2023-02-26T11:06:48.022Z,32.93
2023-02-26T11:09:22.495Z,27.83
2023-02-26T11:11:56.414Z,29.10
2023-02-26T11:14:29.294Z,33.00
2023-02-26T11:17:01.957Z,27.70
2023-02-26T11:19:37.578Z,39.67
2023-02-26T11:22:09.902Z,49.07
2023-02-26T11:24:41.894Z,43.97
2023-02-26T11:27:15.551Z,31.97
2023-02-26T11:29:48.462Z,24.77
2023-02-26T11:32:21.104Z,33.07
2023-02-26T11:34:53.653Z,45.80
2023-02-26T11:37:25.294Z,26.03
2023-02-26T11:40:00.226Z,13.77
2023-02-26T11:42:29.779Z,75.90
2023-02-26T11:45:00.039Z,3.00
2023-02-26T11:47:31.189Z,6.77
2023-02-26T11:50:06.761Z,36.23
2023-02-26T11:52:41.658Z,46.97
2023-02-26T11:55:21.677Z,42.53
2023-02-26T11:57:55.382Z,37.97
2023-02-26T12:00:31.690Z,36.80
2023-02-26T12:03:04.726Z,44.60
2023-02-26T12:05:35.163Z,57.67
2023-02-26T12:08:14.180Z,50.10
2023-02-26T12:10:51.143Z,22.67
2023-02-26T12:13:28.833Z,17.07
2023-02-26T12:16:02.972Z,21.70
2023-02-26T12:18:41.071Z,21.90
2023-02-26T12:21:25.385Z,20.90
2023-02-26T12:24:20.943Z,24.30
2023-02-26T12:26:59.677Z,21.77
2023-02-26T12:29:59.709Z,23.53
2023-02-26T12:33:01.535Z,25.80
2023-02-26T12:35:43.066Z,27.23
2023-02-26T12:38:30.627Z,17.33
2023-02-26T12:41:42.772Z,83.30
2023-02-26T12:44:27.334Z,15.38
2023-02-26T12:47:28.054Z,71.63
2023-02-26T12:50:11.065Z,49.73
2023-02-26T12:52:56.879Z,33.20
2023-02-26T12:55:38.153Z,42.43
2023-02-26T12:58:27.444Z,7.25
2023-02-26T13:01:16.809Z,91.63
2023-02-26T13:04:19.351Z,51.33
2023-02-26T13:07:15.263Z,26.83
2023-02-26T13:09:57.568Z,25.87
2023-02-26T13:12:39.397Z,28.13
2023-02-26T13:15:23.419Z,39.23
2023-02-26T13:18:00.738Z,19.97
2023-02-26T13:20:30.974Z,32.00
2023-02-26T13:23:05.007Z,18.37
2023-02-26T13:25:40.400Z,19.60
2023-02-26T13:28:32.095Z,20.47
2023-02-26T13:31:02.990Z,17.40
2023-02-26T13:33:35.038Z,15.57
2023-02-26T13:36:07.265Z,19.27
2023-02-26T13:38:47.376Z,22.30
2023-02-26T13:41:21.485Z,20.53
2023-02-26T13:44:16.086Z,30.63
2023-02-26T13:47:00.106Z,24.90
2023-02-26T13:49:38.544Z,27.70
2023-02-26T13:52:07.172Z,30.63
2023-02-26T13:54:44.757Z,25.30
2023-02-26T13:57:37.902Z,26.57
2023-02-26T14:00:26.527Z,19.40
2023-02-26T14:02:57.162Z,24.23
2023-02-26T14:05:38.301Z,25.53
2023-02-26T14:08:39.589Z,25.20
2023-02-26T14:11:43.898Z,20.40
2023-02-26T14:14:35.727Z,16.63
2023-02-26T14:17:32.075Z,19.53
2023-02-26T14:20:25.306Z,24.93
2023-02-26T14:23:19.969Z,17.07
2023-02-26T14:25:50.768Z,22.17
2023-02-26T14:28:43.196Z,21.93
2023-02-26T14:31:26.781Z,24.73
2023-02-26T14:34:15.589Z,20.87
2023-02-26T14:36:48.560Z,29.73
2023-02-26T14:39:37.492Z,22.70
2023-02-26T14:42:09.608Z,26.37
2023-02-26T14:44:42.548Z,27.30
2023-02-26T14:47:12.310Z,9.13
2023-02-26T14:49:45.240Z,89.50
2023-02-26T14:52:53.361Z,32.80
2023-02-26T14:55:46.049Z,16.73
2023-02-26T14:58:34.755Z,14.93
2023-02-26T15:01:21.632Z,17.47
2023-02-26T15:04:16.968Z,17.77
2023-02-26T15:07:06.398Z,16.00
2023-02-26T15:09:47.417Z,20.63
2023-02-26T15:12:28.281Z,23.17
2023-02-26T15:15:14.574Z,16.90
2023-02-26T15:17:54.867Z,19.53
2023-02-26T15:20:36.852Z,21.67
2023-02-26T15:23:22.055Z,21.53
2023-02-26T15:25:52.116Z,18.83
2023-02-26T15:28:29.387Z,21.93
2023-02-26T15:30:59.232Z,27.07
2023-02-26T15:33:29.744Z,19.43
2023-02-26T15:35:59.708Z,21.40
2023-02-26T15:38:30.055Z,21.03
2023-02-26T15:41:04.988Z,21.97
2023-02-26T15:43:34.190Z,21.80
2023-02-26T15:46:03.684Z,29.80
2023-02-26T15:48:37.702Z,32.03
2023-02-26T15:51:09.593Z,26.00
2023-02-26T15:53:45.221Z,30.07
2023-02-26T15:56:20.180Z,29.53
2023-02-26T15:58:53.881Z,26.97
2023-02-26T16:01:24.692Z,27.23
2023-02-26T16:03:54.821Z,29.83
2023-02-26T16:06:27.871Z,40.43
2023-02-26T16:08:58.410Z,39.07
2023-02-26T16:11:33.541Z,40.30
2023-02-26T16:14:02.888Z,31.73
2023-02-26T16:16:38.944Z,31.07
2023-02-26T16:19:08.396Z,30.43
2023-02-26T16:21:41.013Z,26.70
2023-02-26T16:24:23.232Z,24.20
2023-02-26T16:26:57.935Z,22.67
2023-02-26T16:29:31.550Z,24.70
2023-02-26T16:32:03.365Z,27.03
2023-02-26T16:34:38.017Z,26.13
2023-02-26T16:37:26.494Z,33.50
2023-02-26T16:40:00.438Z,37.30
2023-02-26T16:42:45.103Z,39.20
2023-02-26T16:45:28.772Z,38.80
2023-02-26T16:48:00.304Z,41.63
2023-02-26T16:50:36.224Z,32.03
2023-02-26T16:53:13.991Z,30.80
2023-02-26T16:55:47.668Z,37.03
2023-02-26T16:58:17.952Z,38.33
2023-02-26T17:00:47.915Z,48.37
2023-02-26T17:03:20.077Z,47.07
2023-02-26T17:05:56.387Z,46.70
2023-02-26T17:08:29.014Z,46.73
2023-02-26T17:11:03.873Z,53.37
2023-02-26T17:13:34.631Z,57.40
2023-02-26T17:16:05.221Z,54.97
2023-02-26T17:18:33.978Z,50.27
2023-02-26T17:21:05.703Z,50.27
2023-02-26T17:23:38.199Z,45.53
2023-02-26T17:26:09.472Z,56.17
2023-02-26T17:28:43.710Z,54.53
2023-02-26T17:31:13.465Z,57.43
2023-02-26T17:33:43.934Z,62.30
2023-02-26T17:36:16.766Z,72.87
2023-02-26T17:38:47.364Z,71.03
2023-02-26T17:41:20.646Z,62.23
2023-02-26T17:43:50.336Z,78.20
2023-02-26T17:46:19.106Z,67.07
2023-02-26T17:48:47.692Z,82.63
2023-02-26T17:51:17.103Z,86.80
2023-02-26T17:53:46.869Z,91.07
2023-02-26T17:56:25.876Z,70.20
2023-02-26T17:58:55.885Z,66.80
2023-02-26T18:01:25.209Z,68.67
2023-02-26T18:03:54.943Z,65.73
2023-02-26T18:06:25.581Z,71.97
2023-02-26T18:08:55.859Z,75.83
2023-02-26T18:11:28.167Z,66.07
2023-02-26T18:13:57.361Z,70.87
2023-02-26T18:16:34.228Z,76.13
2023-02-26T18:19:03.399Z,68.00
2023-02-26T18:21:32.906Z,66.70
2023-02-26T18:24:02.228Z,62.13
2023-02-26T18:26:34.857Z,56.97
2023-02-26T18:29:03.814Z,61.57
2023-02-26T18:31:35.394Z,57.53
2023-02-26T18:34:04.999Z,56.00
2023-02-26T18:36:38.091Z,54.30
2023-02-26T18:39:08.800Z,62.57
2023-02-26T18:41:39.322Z,61.67
2023-02-26T18:44:08.129Z,57.87
2023-02-26T18:46:40.367Z,65.17
2023-02-26T18:49:14.632Z,79.73
2023-02-26T18:51:43.375Z,74.63
2023-02-26T18:54:12.176Z,73.53
2023-02-26T18:56:42.474Z,86.20
2023-02-26T18:59:11.107Z,75.17
2023-02-26T19:01:39.750Z,78.00
2023-02-26T19:04:08.851Z,61.90
2023-02-26T19:06:38.212Z,60.80
2023-02-26T19:09:07.438Z,65.27
2023-02-26T19:11:36.566Z,59.27
2023-02-26T19:14:06.892Z,53.37
2023-02-26T19:16:38.423Z,52.40
2023-02-26T19:19:11.792Z,49.33
2023-02-26T19:21:41.316Z,51.03
2023-02-26T19:24:12.074Z,50.57
2023-02-26T19:26:40.901Z,55.93
2023-02-26T19:29:12.880Z,52.50
2023-02-26T19:31:41.672Z,52.73
2023-02-26T19:34:10.258Z,53.47
2023-02-26T19:36:40.775Z,50.63
2023-02-26T19:39:11.986Z,44.50
2023-02-26T19:41:40.650Z,51.60
2023-02-26T19:44:10.869Z,49.13
2023-02-26T19:46:42.069Z,53.23
2023-02-26T19:49:11.320Z,44.60
2023-02-26T19:51:40.253Z,46.23
2023-02-26T19:54:09.436Z,43.10
2023-02-26T19:56:38.288Z,50.67
2023-02-26T19:59:07.967Z,45.97
2023-02-26T20:01:38.359Z,43.80
2023-02-26T20:04:07.468Z,40.97
2023-02-26T20:06:36.335Z,41.27
2023-02-26T20:09:07.377Z,37.70
2023-02-26T20:11:36.296Z,38.77
2023-02-26T20:14:05.065Z,37.10
2023-02-26T20:16:35.150Z,33.27
2023-02-26T20:19:05.487Z,36.50
2023-02-26T20:21:34.242Z,28.88
2023-02-26T20:24:02.897Z,31.42
2023-02-26T20:26:32.848Z,88.70
2023-02-26T20:29:02.718Z,71.33
2023-02-26T20:31:31.808Z,50.47
2023-02-26T20:34:00.921Z,43.93
2023-02-26T20:36:31.522Z,44.17
2023-02-26T20:39:03.341Z,46.13
2023-02-26T20:41:44.350Z,41.50
2023-02-26T20:44:13.063Z,46.47
2023-02-26T20:46:41.813Z,43.70
2023-02-26T20:49:11.777Z,51.90
2023-02-26T20:51:42.581Z,54.53
2023-02-26T20:54:12.985Z,47.93
2023-02-26T20:56:41.826Z,57.37
2023-02-26T20:59:10.591Z,48.90
2023-02-26T21:01:39.215Z,44.70
2023-02-26T21:04:09.156Z,47.30
2023-02-26T21:06:38.257Z,42.57
2023-02-26T21:09:11.262Z,38.13
2023-02-26T21:11:40.595Z,40.27
2023-02-26T21:14:10.243Z,38.40
2023-02-26T21:16:41.037Z,32.33
2023-02-26T21:19:10.070Z,33.10
2023-02-26T21:21:38.684Z,34.83
2023-02-26T21:24:09.783Z,31.90
2023-02-26T21:26:38.474Z,33.50
2023-02-26T21:29:07.084Z,31.97
2023-02-26T21:31:35.947Z,32.00
2023-02-26T21:34:23.573Z,30.07
2023-02-26T21:36:53.608Z,33.70
2023-02-26T21:39:27.698Z,31.17
2023-02-26T21:42:08.688Z,32.00
2023-02-26T21:44:42.094Z,36.13
2023-02-26T21:47:16.121Z,27.17
2023-02-26T21:49:49.113Z,22.83
2023-02-26T21:52:22.898Z,21.60
2023-02-26T21:54:57.233Z,25.27
2023-02-26T21:57:32.520Z,25.13
2023-02-26T22:00:07.236Z,26.50
2023-02-26T22:02:39.658Z,28.30
2023-02-26T22:05:12.209Z,25.93
2023-02-26T22:07:44.305Z,24.33
2023-02-26T22:10:18.779Z,23.47
2023-02-26T22:12:47.342Z,24.77
2023-02-26T22:15:15.840Z,22.73
2023-02-26T22:17:44.458Z,20.20
2023-02-26T22:20:14.397Z,51.00
2023-02-26T22:22:43.099Z,17.20
2023-02-26T22:25:14.421Z,13.68
2023-02-26T22:27:45.768Z,20.90
2023-02-26T22:30:14.948Z,135.90
2023-02-26T22:32:44.192Z,75.37
2023-02-26T22:35:14.081Z,61.73
2023-02-26T22:37:42.986Z,55.57
2023-02-26T22:40:15.081Z,43.03
2023-02-26T22:42:45.043Z,38.93
2023-02-26T22:45:17.356Z,36.70
2023-02-26T22:47:46.772Z,36.60
2023-02-26T22:50:16.269Z,33.03
2023-02-26T22:52:45.799Z,44.50
2023-02-26T22:55:15.879Z,32.70
2023-02-26T22:57:46.158Z,33.10
2023-02-26T23:00:18.853Z,35.33
2023-02-26T23:02:47.940Z,32.07
2023-02-26T23:05:16.976Z,37.57
2023-02-26T23:07:45.875Z,39.30
2023-02-26T23:10:17.491Z,44.33
2023-02-26T23:12:48.274Z,43.60
2023-02-26T23:15:17.135Z,40.03
2023-02-26T23:17:45.744Z,42.80
2023-02-26T23:20:15.626Z,39.83
2023-02-26T23:22:44.937Z,37.67
2023-02-26T23:25:13.749Z,41.10
2023-02-26T23:27:43.768Z,35.13
2023-02-26T23:30:13.724Z,40.47
2023-02-26T23:32:42.401Z,45.77
2023-02-26T23:35:11.651Z,46.07
2023-02-26T23:37:40.582Z,44.47
2023-02-26T23:40:11.678Z,44.17
2023-02-26T23:42:40.280Z,49.17
2023-02-26T23:45:12.125Z,58.87
2023-02-26T23:47:41.220Z,54.33
2023-02-26T23:50:10.981Z,39.63
2023-02-26T23:52:39.557Z,40.43
2023-02-26T23:55:09.208Z,41.77
2023-02-26T23:57:38.011Z,42.20
